Time;durP1;ratioP1;P1;durP2;ratioP2;P2;SDS_P1;SDS_P2;PMS_P1;PMS_P2;Temp;Humidity;BMP_temperature;BMP_pressure;BME280_temperature;BME280_humidity;BME280_pressure;Samples;Min_cycle;Max_cycle;Signal;HPM_P1;HPM_P2
2023/08/31 06:05:12;;;;;;;4.57;3.22;;;;;;;;;;10625070;28;20027;-86
2023/08/31 06:38:54;;;;;;;4.63;3.90;;;;;;;;;;10620199;28;20038;-86
2023/08/31 06:49:36;;;;;;;8.13;5.90;;;;;;;;;;10620917;28;20012;-86
2023/08/31 07:12:11;;;;;;;3.20;2.35;;;;;;;;;;10595855;28;20032;-85
2023/08/31 07:17:12;;;;;;;4.05;2.75;;;;;;;;;;10580575;28;20031;-85
2023/08/31 07:22:16;;;;;;;4.95;3.20;;;;;;;;;;10577845;28;20394;-85
2023/08/31 07:27:18;;;;;;;4.90;2.75;;;;;;;;;;10590667;28;20019;-85
2023/08/31 07:38:24;;;;;;;6.13;3.40;;;;;;;;;;10592529;28;20036;-88
2023/08/31 07:43:31;;;;;;;5.05;3.50;;;;;;;;;;10591281;28;20043;-87
2023/08/31 07:48:34;;;;;;;7.55;3.70;;;;;;;;;;10574546;28;20023;-86
2023/08/31 07:53:36;;;;;;;4.95;3.15;;;;;;;;;;10599176;28;20021;-87
2023/08/31 07:58:37;;;;;;;4.57;3.33;;;;;;;;;;10611845;28;20016;-87
2023/08/31 08:03:38;;;;;;;5.28;3.10;;;;;;;;;;10601182;28;20023;-86
2023/08/31 08:08:39;;;;;;;5.53;3.53;;;;;;;;;;10601609;28;20040;-86
2023/08/31 08:13:40;;;;;;;5.47;3.10;;;;;;;;;;10610003;28;20070;-86
2023/08/31 08:18:41;;;;;;;6.47;2.90;;;;;;;;;;10615464;28;20087;-87
2023/08/31 08:23:42;;;;;;;4.43;2.92;;;;;;;;;;10617525;28;20038;-84
2023/08/31 08:28:43;;;;;;;5.28;2.80;;;;;;;;;;10616591;28;20015;-87
2023/08/31 08:33:44;;;;;;;4.13;2.58;;;;;;;;;;10615758;28;20124;-85
2023/08/31 08:38:46;;;;;;;4.68;2.83;;;;;;;;;;10613484;28;20042;-84
2023/08/31 08:43:47;;;;;;;6.82;2.80;;;;;;;;;;10614386;28;20015;-83
2023/08/31 08:48:49;;;;;;;4.63;2.70;;;;;;;;;;10602637;28;20028;-85
2023/08/31 08:53:51;;;;;;;3.65;2.55;;;;;;;;;;10611617;28;20031;-84
2023/08/31 10:58:29;;;;;;;3.55;2.38;;;;;;;;;;10531120;28;20036;-84
2023/08/31 11:04:18;;;;;;;4.03;2.42;;;;;;;;;;10324028;28;20063;-83
2023/08/31 11:15:51;;;;;;;5.18;2.60;;;;;;;;;;10325525;28;20035;-83
2023/08/31 12:30:46;;;;;;;4.80;2.40;;;;;;;;;;10527323;28;20056;-83
2023/08/31 13:38:24;;;;;;;5.72;2.63;;;;;;;;;;10527629;28;20052;-84
2023/08/31 14:23:09;;;;;;;2.40;1.40;;;;;;;;;;10534505;28;20028;-83
2023/08/31 15:02:19;;;;;;;4.45;2.13;;;;;;;;;;10517839;28;20016;-81
2023/08/31 15:07:20;;;;;;;3.08;2.10;;;;;;;;;;10500899;28;20037;-81
2023/08/31 15:12:22;;;;;;;6.50;2.50;;;;;;;;;;10498755;28;20037;-80
2023/08/31 15:17:23;;;;;;;4.75;2.20;;;;;;;;;;10498630;28;20106;-78
2023/08/31 15:22:24;;;;;;;4.90;2.22;;;;;;;;;;10496637;28;20480;-80
2023/08/31 15:27:40;;;;;;;2.85;1.85;;;;;;;;;;10498039;28;20071;-80
2023/08/31 15:32:42;;;;;;;4.35;3.05;;;;;;;;;;10496336;28;20040;-81
2023/08/31 15:37:47;;;;;;;5.43;2.90;;;;;;;;;;10497798;28;20516;-79
2023/08/31 15:42:49;;;;;;;3.42;2.38;;;;;;;;;;10499426;28;20063;-79
2023/08/31 15:47:50;;;;;;;5.15;2.70;;;;;;;;;;10499474;28;20076;-80
2023/08/31 15:52:51;;;;;;;4.93;2.60;;;;;;;;;;10499629;28;20036;-81
2023/08/31 15:57:53;;;;;;;4.90;2.88;;;;;;;;;;10497765;28;20060;-81
2023/08/31 16:02:54;;;;;;;6.53;3.00;;;;;;;;;;10497720;28;20060;-81
2023/08/31 16:07:55;;;;;;;3.85;2.53;;;;;;;;;;10497325;28;20078;-81
2023/08/31 16:12:57;;;;;;;4.13;2.88;;;;;;;;;;10497064;28;20108;-81
2023/08/31 16:17:58;;;;;;;5.68;2.42;;;;;;;;;;10495328;28;20028;-81
2023/08/31 16:22:59;;;;;;;2.88;2.17;;;;;;;;;;10498753;28;20122;-83
2023/08/31 16:28:00;;;;;;;3.58;2.25;;;;;;;;;;10498282;28;20041;-84
2023/08/31 16:33:02;;;;;;;5.28;2.47;;;;;;;;;;10494821;28;20488;-82
2023/08/31 16:38:28;;;;;;;7.65;2.95;;;;;;;;;;10504092;28;20036;-83
2023/08/31 17:06:26;;;;;;;4.78;3.08;;;;;;;;;;10508657;28;20052;-87
2023/08/31 17:11:47;;;;;;;3.75;2.28;;;;;;;;;;10452522;28;20033;-88
2023/08/31 17:28:42;;;;;;;6.45;3.13;;;;;;;;;;10506178;28;20033;-89
2023/08/31 18:13:28;;;;;;;11.68;5.88;;;;;;;;;;10455797;28;20053;-79
2023/08/31 18:18:29;;;;;;;11.65;5.60;;;;;;;;;;10444213;28;20181;-82
2023/08/31 18:23:30;;;;;;;13.38;5.25;;;;;;;;;;10482644;28;20357;-82
2023/08/31 18:28:31;;;;;;;16.05;5.95;;;;;;;;;;10484106;28;20086;-82
2023/08/31 18:33:32;;;;;;;9.60;5.30;;;;;;;;;;10485068;28;20045;-80
2023/08/31 18:38:33;;;;;;;7.75;5.00;;;;;;;;;;10482470;28;20033;-81
2023/08/31 18:43:34;;;;;;;9.93;4.07;;;;;;;;;;10486278;28;20040;-81
2023/08/31 18:48:35;;;;;;;9.48;4.13;;;;;;;;;;10488660;28;20036;-79
2023/08/31 18:53:36;;;;;;;7.15;4.13;;;;;;;;;;10491009;28;20029;-81
2023/08/31 18:58:39;;;;;;;9.25;4.15;;;;;;;;;;10493193;28;20075;-81
2023/08/31 19:03:40;;;;;;;5.63;3.47;;;;;;;;;;10508670;28;20059;-82
2023/08/31 19:08:45;;;;;;;4.88;3.42;;;;;;;;;;10491990;28;20107;-81
